Time;durP1;ratioP1;P1;durP2;ratioP2;P2;SDS_P1;SDS_P2;PMS_P1;PMS_P2;Temp;Humidity;BMP_temperature;BMP_pressure;BME280_temperature;BME280_humidity;BME280_pressure;Samples;Min_cycle;Max_cycle;Signal;HPM_P1;HPM_P2
2023/10/19 00:02:22;;;;;;;;;1.00;1.00;;;;;19.60;100.00;98680.63;6227086;22;44726;-82
2023/10/19 00:04:53;;;;;;;;;0.50;0.50;;;;;19.73;100.00;98679.03;6226305;22;47884;-82
2023/10/19 00:07:34;;;;;;;;;0.75;0.75;;;;;19.85;100.00;98696.31;6226569;22;45581;-82
2023/10/19 00:10:03;;;;;;;;;1.50;1.50;;;;;19.64;100.00;98695.69;6225450;22;45459;-82
2023/10/19 00:12:36;;;;;;;;;1.00;1.00;;;;;19.44;100.00;98655.47;6225453;22;45320;-82
2023/10/19 00:15:11;;;;;;;;;3.00;2.00;;;;;19.65;100.00;98658.78;6224214;22;47040;-82
2023/10/19 00:17:39;;;;;;;;;1.00;1.00;;;;;19.65;100.00;98681.22;6223095;22;44894;-82
2023/10/19 00:20:52;;;;;;;;;4.00;1.00;;;;;19.66;100.00;98690.22;6222491;22;45666;-83
2023/10/19 00:22:57;;;;;;;;;2.00;2.00;;;;;19.66;100.00;98715.34;6238859;22;45344;-82
2023/10/19 00:25:34;;;;;;;;;3.00;2.00;;;;;19.64;100.00;98674.09;6222164;22;46928;-83
2023/10/19 00:28:03;;;;;;;;;3.50;2.00;;;;;19.54;100.00;98687.22;6222564;22;44734;-82
2023/10/19 00:30:35;;;;;;;;;1.50;1.50;;;;;19.89;100.00;98721.28;6223652;22;44812;-82
2023/10/19 00:33:21;;;;;;;;;3.00;1.00;;;;;19.93;100.00;98710.25;6223606;22;45313;-82
2023/10/19 00:39:20;;;;;;;;;1.75;1.75;;;;;19.70;100.00;98692.63;6252335;22;45413;-81
2023/10/19 00:41:49;;;;;;;;;2.00;2.00;;;;;19.80;100.00;98686.78;6224674;22;45351;-82
2023/10/19 00:44:30;;;;;;;;;2.50;1.00;;;;;19.62;100.00;98665.22;6224489;22;45593;-82
2023/10/19 00:47:05;;;;;;;;;3.25;1.00;;;;;19.50;100.00;98657.84;6254023;22;45186;-83
2023/10/19 00:49:33;;;;;;;;;1.75;1.75;;;;;19.59;100.00;98668.09;6253775;22;45431;-82
2023/10/19 00:52:18;;;;;;;;;1.25;1.00;;;;;19.73;100.00;98673.63;6226763;22;45376;-81
2023/10/19 00:54:51;;;;;;;;;3.50;3.00;;;;;19.58;100.00;98647.50;6227067;22;45394;-81
2023/10/19 00:57:22;;;;;;;;;4.25;3.00;;;;;19.63;100.00;98637.28;6226693;22;46884;-81
2023/10/19 01:05:58;;;;;;;;;6.50;1.00;;;;;19.82;100.00;98665.97;6254392;22;45407;-86
2023/10/19 01:08:26;;;;;;;;;2.00;2.00;;;;;19.72;100.00;98665.63;6225484;22;46739;-86
2023/10/19 01:10:59;;;;;;;;;3.00;2.50;;;;;19.90;100.00;98661.00;6223862;22;45714;-86
2023/10/19 01:13:28;;;;;;;;;5.00;3.00;;;;;19.68;100.00;98645.16;6225894;22;44840;-87
2023/10/19 01:16:00;;;;;;;;;3.75;2.00;;;;;19.74;100.00;98652.91;6252848;22;45426;-84
2023/10/19 01:18:31;;;;;;;;;2.50;2.25;;;;;19.81;100.00;98626.44;6223562;22;47051;-87
2023/10/19 01:21:04;;;;;;;;;3.00;1.75;;;;;19.62;100.00;98618.53;6223772;22;45253;-86
2023/10/19 01:23:35;;;;;;;;;3.75;2.00;;;;;19.85;100.00;98628.88;6252918;22;44802;-86
2023/10/19 01:26:07;;;;;;;;;1.75;1.75;;;;;19.65;100.00;98610.25;6225568;22;45264;-86
2023/10/19 01:31:07;;;;;;;;;4.00;2.00;;;;;19.80;100.00;98635.53;6251735;22;45435;-86
2023/10/19 01:33:44;;;;;;;;;2.67;2.67;;;;;19.71;100.00;98593.75;6198021;22;45409;-87
2023/10/19 01:42:14;;;;;;;;;2.00;2.00;;;;;19.75;100.00;98615.09;6250480;22;45350;-86
2023/10/19 01:44:49;;;;;;;;;2.00;2.00;;;;;19.83;100.00;98602.97;6248363;22;45373;-86
2023/10/19 01:47:20;;;;;;;;;3.00;3.00;;;;;19.67;100.00;98563.34;6224448;22;45316;-86
2023/10/19 01:49:52;;;;;;;;;5.50;2.50;;;;;19.66;100.00;98587.72;6223726;22;47147;-86
2023/10/19 01:52:19;;;;;;;;;2.67;2.67;;;;;19.89;100.00;98591.81;6222300;22;45678;-87
2023/10/19 01:54:45;;;;;;;;;4.67;2.33;;;;;19.65;100.00;98559.00;6222811;22;45395;-86
2023/10/19 01:57:15;;;;;;;;;3.75;2.00;;;;;19.61;100.00;98558.31;6221048;22;45450;-87
2023/10/19 01:59:52;;;;;;;;;3.33;3.33;;;;;19.70;100.00;98565.03;6222810;22;46831;-86
2023/10/19 02:02:18;;;;;;;;;3.00;3.00;;;;;19.69;100.00;98571.34;6224428;22;45347;-87
2023/10/19 02:04:44;;;;;;;;;3.00;1.75;;;;;19.82;100.00;98585.06;6251428;22;45273;-86
2023/10/19 02:07:17;;;;;;;;;1.00;1.00;;;;;19.69;100.00;98557.88;6252155;22;45340;-86
2023/10/19 02:09:43;;;;;;;;;3.50;3.00;;;;;19.71;100.00;98556.88;6225170;22;47110;-87
2023/10/19 02:12:11;;;;;;;;;2.75;2.75;;;;;19.67;100.00;98538.22;6223144;22;45344;-87
2023/10/19 02:21:32;;;;;;;;;3.75;3.25;;;;;19.84;100.00;98553.47;6253088;22;45658;-87
2023/10/19 02:24:07;;;;;;;;;6.00;3.00;;;;;19.73;100.00;98510.91;6225270;22;46186;-86
2023/10/19 02:26:44;;;;;;;;;3.00;3.00;;;;;20.04;100.00;98557.69;6252430;22;45320;-87
2023/10/19 02:29:23;;;;;;;;;5.00;5.00;;;;;19.80;100.00;98530.31;6224348;22;45518;-88
2023/10/19 02:42:23;;;;;;;;;1.75;1.50;;;;;19.72;100.00;98520.84;6251025;22;45295;-86
2023/10/19 02:44:50;;;;;;;;;5.00;3.00;;;;;19.46;100.00;98502.59;6251120;22;46505;-86
2023/10/19 02:47:18;;;;;;;;;2.00;2.00;;;;;19.71;100.00;98554.19;6225178;22;45517;-86
2023/10/19 02:49:51;;;;;;;;;4.00;1.75;;;;;19.60;100.00;98529.63;6250758;22;45372;-86
2023/10/19 02:52:22;;;;;;;;;2.50;2.00;;;;;19.66;100.00;98507.69;6251742;22;45505;-86
2023/10/19 02:54:53;;;;;;;;;2.50;2.50;;;;;19.54;100.00;98519.19;6250882;22;46164;-86
2023/10/19 03:00:43;;;;;;;;;3.50;2.75;;;;;19.64;100.00;98533.88;6159735;22;45422;-86
2023/10/19 03:03:16;;;;;;;;;2.00;2.00;;;;;19.66;100.00;98515.78;6158394;23;45474;-86
2023/10/19 03:05:43;;;;;;;;;3.00;3.00;;;;;19.53;100.00;98521.03;6157075;23;46621;-86
2023/10/19 03:08:11;;;;;;;;;3.00;1.50;;;;;19.80;100.00;98536.59;6157880;23;45350;-86
2023/10/19 03:10:42;;;;;;;;;3.75;1.75;;;;;19.52;100.00;98518.41;6157896;23;44807;-85
2023/10/19 03:13:19;;;;;;;;;2.00;2.00;;;;;19.75;100.00;98525.19;6132112;23;45238;-87
2023/10/19 03:15:53;;;;;;;;;2.00;2.00;;;;;19.62;100.00;98498.03;6157404;23;45399;-86
2023/10/19 03:18:33;;;;;;;;;4.00;2.50;;;;;19.64;100.00;98487.19;6131497;23;44812;-85
2023/10/19 03:20:59;;;;;;;;;4.50;3.75;;;;;19.44;100.00;98477.56;6156374;23;45457;-85
2023/10/19 03:23:28;;;;;;;;;4.50;2.75;;;;;19.53;100.00;98490.50;6128606;23;45355;-85
2023/10/19 03:30:04;;;;;;;;;1.50;1.50;;;;;19.62;100.00;98481.88;6233767;22;45563;-86
2023/10/19 03:32:33;;;;;;;;;4.50;3.00;;;;;19.29;100.00;98469.41;6195978;22;45330;-87
2023/10/19 03:35:07;;;;;;;;;3.00;3.00;;;;;19.61;100.00;98482.81;6224175;22;45331;-85
2023/10/19 03:38:14;;;;;;;;;3.25;3.25;;;;;19.53;100.00;98495.88;6225381;22;45984;-84
2023/10/19 03:40:52;;;;;;;;;1.50;1.50;;;;;19.50;100.00;98461.03;6224168;22;45440;-87
2023/10/19 03:43:27;;;;;;;;;4.00;2.25;;;;;19.66;100.00;98494.22;6251060;22;44800;-85
2023/10/19 04:06:57;;;;;;;;;3.25;2.50;;;;;19.68;100.00;98451.84;6156731;23;45358;-86
2023/10/19 04:09:57;;;;;;;;;3.00;2.00;;;;;19.34;100.00;98421.50;6157706;23;45476;-86
2023/10/19 04:12:31;;;;;;;;;3.25;3.00;;;;;19.42;100.00;98447.13;6191343;22;45549;-86
2023/10/19 04:17:45;;;;;;;;;3.00;3.00;;;;;19.37;100.00;98417.78;6250563;22;45413;-86
2023/10/19 04:20:55;;;;;;;;;4.25;3.75;;;;;19.42;100.00;98420.19;6224499;22;45477;-87
2023/10/19 04:26:50;;;;;;;;;4.00;2.75;;;;;19.18;100.00;98401.78;6175949;22;45445;-86
2023/10/19 04:29:20;;;;;;;;;2.00;2.00;;;;;19.09;100.00;98387.03;6223802;22;45510;-85
2023/10/19 04:31:54;;;;;;;;;2.00;2.00;;;;;19.47;100.00;98432.44;6226090;22;45215;-86
2023/10/19 04:34:21;;;;;;;;;5.50;4.25;;;;;19.41;100.00;98422.00;6223005;22;45596;-86
2023/10/19 04:36:53;;;;;;;;;3.75;3.75;;;;;19.29;100.00;98393.97;6220665;22;47353;-85
2023/10/19 04:42:52;;;;;;;;;4.75;2.50;;;;;19.34;100.00;98428.72;6245790;22;45366;-87
2023/10/19 04:45:34;;;;;;;;;1.00;1.00;;;;;19.30;100.00;98390.28;6224267;22;45748;-86
2023/10/19 04:48:06;;;;;;;;;2.75;2.00;;;;;19.24;100.00;98379.00;6249651;22;45426;-87
2023/10/19 04:50:32;;;;;;;;;2.00;2.00;;;;;19.19;100.00;98403.53;6221507;22;45037;-86
2023/10/19 04:53:10;;;;;;;;;;;;;;;;;;;;;
2023/10/19 04:55:36;;;;;;;;;3.00;3.00;;;;;19.30;100.00;98406.47;6250185;22;64678;-86
2023/10/19 04:58:15;;;;;;;;;1.75;1.75;;;;;19.41;100.00;98380.69;6249014;22;45498;-87
2023/10/19 05:00:58;;;;;;;;;1.50;1.00;;;;;19.43;100.00;98397.63;6249862;22;45685;-86
2023/10/19 05:03:39;;;;;;;;;2.00;2.00;;;;;19.35;100.00;98396.28;6251119;22;45290;-87
2023/10/19 05:06:13;;;;;;;;;5.50;4.50;;;;;19.18;100.00;98353.28;6222729;22;45537;-87
2023/10/19 05:19:11;;;;;;;;;5.00;4.00;;;;;19.08;100.00;98379.03;6249557;22;45349;-87
2023/10/19 05:21:39;;;;;;;;;2.00;2.00;;;;;19.20;100.00;98378.31;6223313;22;47080;-86
2023/10/19 05:24:13;;;;;;;;;3.75;3.00;;;;;19.14;100.00;98351.75;6250615;22;45498;-88
2023/10/19 05:26:53;;;;;;;;;;;;;;;;;;;;;
2023/10/19 05:29:26;;;;;;;;;3.25;3.00;;;;;18.84;100.00;98312.19;6253230;22;65169;-87
2023/10/19 05:36:01;;;;;;;;;3.67;3.33;;;;;19.24;100.00;98323.28;6252506;22;44742;-86
2023/10/19 06:03:03;;;;;;;;;2.75;2.00;;;;;19.19;100.00;98323.56;6093743;23;45516;-82
2023/10/19 06:23:55;;;;;;;;;4.00;4.00;;;;;18.89;100.00;98302.03;6211675;22;45904;-84
2023/10/19 06:26:21;;;;;;;;;4.00;4.00;;;;;18.99;100.00;98313.97;6216880;22;45322;-83
2023/10/19 06:28:47;;;;;;;;;2.25;2.25;;;;;19.09;100.00;98302.66;6219884;22;44779;-85
2023/10/19 06:31:14;;;;;;;;;2.00;2.00;;;;;18.98;100.00;98306.84;6223263;22;45279;-84
2023/10/19 06:33:41;;;;;;;;;3.50;2.25;;;;;19.07;100.00;98297.38;6222540;22;45359;-85
2023/10/19 06:36:07;;;;;;;;;1.50;1.50;;;;;19.04;100.00;98302.06;6221558;22;44879;-85
2023/10/19 06:38:33;;;;;;;;;3.50;1.00;;;;;18.95;100.00;98287.31;6221071;22;45244;-84
2023/10/19 06:41:11;;;;;;;;;2.50;2.50;;;;;19.21;100.00;98304.63;6220321;22;44805;-84
2023/10/19 06:43:38;;;;;;;;;2.25;2.25;;;;;19.07;100.00;98299.19;6222100;22;47091;-85
2023/10/19 06:46:04;;;;;;;;;4.25;4.00;;;;;19.08;100.00;98299.09;6221898;22;45273;-84
2023/10/19 06:48:32;;;;;;;;;4.75;4.75;;;;;19.29;100.00;98302.34;6223185;22;44691;-85
2023/10/19 06:50:58;;;;;;;;;5.00;5.00;;;;;18.89;100.00;98266.16;6222023;22;44944;-85
2023/10/19 06:53:24;;;;;;;;;4.50;4.00;;;;;18.96;100.00;98284.53;6219963;22;47166;-84
2023/10/19 06:55:52;;;;;;;;;4.50;4.50;;;;;19.08;100.00;98292.84;6227530;22;45370;-85
2023/10/19 06:58:52;;;;;;;;;5.00;2.75;;;;;19.35;100.00;98288.47;6222377;22;44635;-85
2023/10/19 07:01:18;;;;;;;;;2.00;1.25;;;;;19.10;100.00;98291.78;6222907;22;44877;-83
2023/10/19 07:03:44;;;;;;;;;3.75;3.75;;;;;19.11;100.00;98287.28;6221948;22;47068;-86
2023/10/19 07:06:16;;;;;;;;;3.75;3.75;;;;;19.29;100.00;98288.84;6249927;22;44850;-86
2023/10/19 07:08:42;;;;;;;;;4.50;4.50;;;;;18.87;100.00;98242.00;6219404;22;45306;-84
2023/10/19 07:11:07;;;;;;;;;1.00;1.00;;;;;19.13;100.00;98279.97;6221291;22;45637;-84
2023/10/19 07:13:36;;;;;;;;;6.00;4.00;;;;;19.21;100.00;98275.00;6222061;22;46672;-87
2023/10/19 07:16:03;;;;;;;;;5.25;4.75;;;;;19.16;100.00;98274.38;6229190;22;44785;-87
2023/10/19 07:18:29;;;;;;;;;2.75;2.00;;;;;19.15;100.00;98270.84;6222273;22;45387;-84
2023/10/19 07:21:03;;;;;;;;;3.00;3.00;;;;;19.09;100.00;98256.88;6223772;22;44821;-88
2023/10/19 07:23:29;;;;;;;;;3.00;3.00;;;;;18.97;100.00;98236.94;6240081;22;45403;-85
2023/10/19 07:25:55;;;;;;;;;2.33;2.00;;;;;19.08;100.00;98252.44;6229612;22;45360;-89
2023/10/19 07:28:27;;;;;;;;;3.00;3.00;;;;;19.33;100.00;98262.56;6257425;22;45373;-87
2023/10/19 07:30:54;;;;;;;;;4.67;2.00;;;;;19.13;100.00;98247.66;6197352;22;46047;-84
2023/10/19 07:33:26;;;;;;;;;3.00;2.33;;;;;19.10;100.00;98250.50;6134223;23;47692;-84
2023/10/19 07:35:54;;;;;;;;;2.33;2.33;;;;;19.24;100.00;98244.28;6217384;22;45128;-83
2023/10/19 07:38:25;;;;;;;;;2.00;2.00;;;;;19.30;100.00;98250.16;6166217;23;45390;-89
2023/10/19 07:40:58;;;;;;;;;7.00;5.00;;;;;19.21;100.00;98237.25;6189997;22;44869;-88
2023/10/19 07:43:25;;;;;;;;;6.00;3.67;;;;;19.11;100.00;98206.47;6196613;23;45412;-88
2023/10/19 07:45:53;;;;;;;;;2.25;2.25;;;;;19.16;100.00;98198.94;6191211;22;44817;-82
2023/10/19 07:48:19;;;;;;;;;3.00;2.50;;;;;19.32;100.00;98228.50;6188558;23;45278;-86
2023/10/19 07:50:49;;;;;;;;;5.00;4.00;;;;;19.73;100.00;98246.63;6183344;23;45473;-82
2023/10/19 07:53:14;;;;;;;;;2.00;2.00;;;;;19.56;100.00;98236.88;6181739;23;47327;-88
2023/10/19 07:55:43;;;;;;;;;2.75;2.75;;;;;19.58;100.00;98216.09;6199838;23;44732;-89
2023/10/19 07:58:19;;;;;;;;;4.00;3.25;;;;;19.71;100.00;98222.47;6196648;23;45606;-88
2023/10/19 08:00:48;;;;;;;;;3.75;3.75;;;;;19.58;100.00;98233.13;6190831;22;45071;-87
2023/10/19 08:03:16;;;;;;;;;0.75;0.75;;;;;19.91;100.00;98258.94;6182689;23;45132;-86
2023/10/19 08:05:42;;;;;;;;;2.50;2.50;;;;;19.80;100.00;98260.63;6193432;22;45468;-87
2023/10/19 08:08:09;;;;;;;;;3.00;3.00;;;;;19.68;100.00;98228.03;6196605;22;44772;-84
2023/10/19 08:10:35;;;;;;;;;3.00;2.50;;;;;19.67;100.00;98220.88;6189772;22;44838;-84
2023/10/19 08:13:07;;;;;;;;;3.50;3.00;;;;;19.92;100.00;98235.56;6167417;23;46948;-83
2023/10/19 08:18:12;;;;;;;;;6.00;3.25;;;;;19.92;100.00;98247.19;6193562;22;45816;-82
2023/10/19 08:20:37;;;;;;;;;3.00;2.00;;;;;19.97;100.00;98250.44;6191836;22;45289;-83
2023/10/19 08:23:03;;;;;;;;;3.75;3.75;;;;;20.04;100.00;98236.59;6223126;22;45033;-84
2023/10/19 08:30:44;;;;;;;;;3.00;3.00;;;;;20.27;100.00;98216.19;6159764;22;46833;-86
2023/10/19 08:33:13;;;;;;;;;3.00;2.00;;;;;20.29;100.00;98222.34;6224189;22;45444;-87
2023/10/19 08:35:51;;;;;;;;;2.50;2.50;;;;;20.52;99.60;98219.00;6198195;22;45302;-81
2023/10/19 08:55:17;;;;;;;;;3.50;3.50;;;;;21.34;95.57;98214.28;6236325;22;44917;-87
2023/10/19 09:16:11;;;;;;;;;2.75;2.75;;;;;21.69;92.03;98172.19;6173775;22;45936;-85
2023/10/19 09:18:38;;;;;;;;;2.00;2.00;;;;;21.53;93.11;98177.84;6237443;22;44792;-87
2023/10/19 09:21:07;;;;;;;;;1.50;1.50;;;;;21.64;92.38;98180.66;6229407;22;44775;-86
2023/10/19 09:23:36;;;;;;;;;1.00;1.00;;;;;21.74;92.78;98175.44;6230395;22;45452;-86
2023/10/19 09:26:05;;;;;;;;;3.50;3.50;;;;;22.03;91.86;98169.72;6230174;22;47117;-87
2023/10/19 09:28:34;;;;;;;;;2.00;2.00;;;;;22.16;90.71;98176.81;6228128;22;45308;-87
2023/10/19 09:31:03;;;;;;;;;1.75;1.75;;;;;22.33;89.02;98188.25;6255525;22;44909;-83
2023/10/19 09:33:33;;;;;;;;;2.75;2.75;;;;;22.40;90.59;98162.47;6258662;22;44865;-89
2023/10/19 09:36:12;;;;;;;;;3.25;3.25;;;;;22.57;88.79;98167.44;6253937;22;46614;-88
2023/10/19 09:38:50;;;;;;;;;2.00;2.00;;;;;22.63;88.38;98168.81;6226794;22;45337;-84
2023/10/19 09:41:38;;;;;;;;;3.25;1.00;;;;;22.65;87.76;98157.88;6230141;22;45450;-86
2023/10/19 09:44:20;;;;;;;;;3.00;3.00;;;;;22.51;88.74;98121.88;6220169;22;45349;-88
2023/10/19 09:46:50;;;;;;;;;2.00;2.00;;;;;22.49;88.14;98129.25;6231177;22;45411;-87
2023/10/19 10:02:26;;;;;;;;;2.00;2.00;;;;;22.76;86.77;98163.31;6204634;22;44746;-85
2023/10/19 10:04:51;;;;;;;;;3.50;3.00;;;;;22.56;85.66;98168.44;6170619;23;44919;-84
2023/10/19 10:07:28;;;;;;;;;1.00;1.00;;;;;22.56;86.69;98176.56;6165473;23;46862;-82
2023/10/19 10:12:41;;;;;;;;;2.50;2.50;;;;;22.77;87.41;98182.16;6159787;22;45776;-87
2023/10/19 10:15:08;;;;;;;;;1.00;1.00;;;;;22.76;86.94;98163.31;6204252;22;45295;-87
2023/10/19 10:20:34;;;;;;;;;3.25;2.75;;;;;22.96;86.29;98165.34;6102120;23;45265;-86
2023/10/19 10:23:24;;;;;;;;;0.75;0.75;;;;;23.10;85.70;98156.16;6103116;23;45447;-84
2023/10/19 10:25:53;;;;;;;;;1.00;1.00;;;;;22.91;86.68;98162.13;6101366;23;45502;-84
2023/10/19 10:28:38;;;;;;;;;1.00;1.00;;;;;23.13;85.60;98157.78;6103784;23;46696;-84
2023/10/19 10:31:36;;;;;;;;;2.40;1.20;;;;;23.23;83.84;98156.06;6132107;23;44912;-84
2023/10/19 10:34:04;;;;;;;;;1.50;1.50;;;;;23.08;84.61;98149.13;6081249;23;44782;-84
2023/10/19 10:37:02;;;;;;;;;1.25;1.00;;;;;23.30;83.33;98137.44;6078231;23;44867;-83
2023/10/19 10:39:30;;;;;;;;;1.75;1.75;;;;;23.13;83.28;98138.81;6135959;23;45116;-84
2023/10/19 10:41:59;;;;;;;;;1.25;1.25;;;;;23.29;83.18;98150.16;6139149;23;45421;-83
2023/10/19 10:44:39;;;;;;;;;2.50;2.00;;;;;23.35;81.08;98138.81;6134978;23;44931;-82
2023/10/19 10:47:09;;;;;;;;;2.00;2.00;;;;;23.21;82.26;98120.06;6108154;23;45668;-83
2023/10/19 10:49:55;;;;;;;;;1.50;1.50;;;;;23.26;81.45;98128.69;6135506;23;45056;-83
2023/10/19 10:52:36;;;;;;;;;2.00;1.00;;;;;23.43;81.05;98118.34;6132102;23;45377;-83
2023/10/19 10:55:13;;;;;;;;;2.25;2.25;;;;;23.47;81.29;98106.25;6109028;23;44884;-84
2023/10/19 10:57:45;;;;;;;;;3.00;1.00;;;;;23.38;78.84;98097.00;6157673;22;45196;-84
2023/10/19 11:00:15;;;;;;;;;1.00;1.00;;;;;23.32;79.87;98094.78;6231517;22;45413;-84
2023/10/19 11:03:08;;;;;;;;;;;;;;;;;;;;;
2023/10/19 11:05:37;;;;;;;;;4.00;2.25;;;;;23.34;78.14;98090.97;6227865;22;68101;-81
2023/10/19 11:08:36;;;;;;;;;0.25;0.25;;;;;23.62;79.19;98099.56;6208797;22;44817;-84
2023/10/19 11:16:23;;;;;;;;;1.00;1.00;;;;;23.70;79.36;98083.53;6105647;22;46580;-85
2023/10/19 11:25:35;;;;;;;;;1.25;1.25;;;;;24.12;78.40;98089.13;6190312;22;45711;-84
2023/10/19 11:28:04;;;;;;;;;4.50;3.00;;;;;23.95;77.41;98076.94;6201628;22;44792;-83
2023/10/19 11:30:48;;;;;;;;;;;;;;;;;;;;;
2023/10/19 11:35:54;;;;;;;;;4.00;2.75;;;;;24.14;76.24;98049.13;6199181;22;46426;-83
2023/10/19 11:38:20;;;;;;;;;1.75;1.50;;;;;24.14;75.28;98065.41;6220773;22;44891;-82
2023/10/19 11:40:45;;;;;;;;;2.25;2.25;;;;;24.11;75.08;98049.38;6222856;22;44746;-82
2023/10/19 11:43:12;;;;;;;;;2.25;2.25;;;;;24.20;73.58;98047.75;6222365;22;45424;-82
2023/10/19 11:45:38;;;;;;;;;3.75;2.00;;;;;24.27;73.86;98053.50;6226989;22;45237;-81
2023/10/19 11:51:26;;;;;;;;;1.50;1.50;;;;;24.20;69.68;98046.84;6222595;22;45348;-81
2023/10/19 11:53:51;;;;;;;;;1.00;1.00;;;;;24.25;71.97;98047.34;6223308;22;45350;-84
2023/10/19 11:56:17;;;;;;;;;1.75;1.75;;;;;24.25;71.85;98029.19;6224721;22;45374;-83
2023/10/19 11:58:52;;;;;;;;;3.25;3.00;;;;;24.07;69.91;98018.03;6194737;22;45322;-83
2023/10/19 12:01:26;;;;;;;;;1.00;1.00;;;;;24.42;69.53;98035.03;6198852;22;45354;-82
2023/10/19 12:07:14;;;;;;;;;1.25;1.25;;;;;24.48;70.21;98032.66;6223349;22;44716;-82
2023/10/19 12:09:42;;;;;;;;;1.00;1.00;;;;;24.54;69.86;98024.00;6222425;22;45350;-81
2023/10/19 12:12:09;;;;;;;;;5.00;2.00;;;;;24.61;69.42;98013.44;6197858;22;45218;-82
2023/10/19 12:14:38;;;;;;;;;2.50;2.50;;;;;24.72;69.84;98023.38;6221670;22;45292;-84
2023/10/19 12:17:07;;;;;;;;;4.00;3.00;;;;;24.62;69.75;98031.50;6221829;22;45399;-84
2023/10/19 12:25:11;;;;;;;;;2.00;1.00;;;;;25.05;69.59;98024.13;6222130;22;45243;-84
2023/10/19 12:27:37;;;;;;;;;11.00;9.00;;;;;25.00;68.96;98029.94;6221048;22;44802;-83
2023/10/19 12:30:13;;;;;;;;;3.50;2.00;;;;;25.14;68.99;98015.13;6196815;22;45338;-81
2023/10/19 12:32:40;;;;;;;;;2.00;2.00;;;;;25.21;69.19;98007.28;6223473;22;44871;-83
2023/10/19 12:35:57;;;;;;;;;1.00;1.00;;;;;25.53;66.04;98005.28;6193145;22;47121;-84
2023/10/19 12:38:25;;;;;;;;;1.00;1.00;;;;;25.22;68.19;98003.59;6220434;22;45399;-84
2023/10/19 12:40:51;;;;;;;;;4.50;0.50;;;;;25.18;65.76;98000.25;6222673;22;45329;-83
2023/10/19 12:43:18;;;;;;;;;4.00;4.00;;;;;25.21;66.84;97982.78;6221907;22;45332;-82
2023/10/19 12:45:50;;;;;;;;;3.75;1.75;;;;;25.06;66.99;97985.03;6191268;22;46746;-82
2023/10/19 12:48:17;;;;;;;;;1.00;1.00;;;;;25.11;66.25;97982.78;6193387;22;45329;-83
2023/10/19 12:50:51;;;;;;;;;0.50;0.50;;;;;25.07;67.40;97993.06;6222849;22;45634;-85
2023/10/19 12:53:17;;;;;;;;;1.75;1.75;;;;;25.07;65.40;97994.94;6195535;22;45294;-86
2023/10/19 12:55:43;;;;;;;;;1.00;1.00;;;;;25.12;64.30;97984.50;6221141;22;46243;-85
2023/10/19 12:58:52;;;;;;;;;1.25;0.00;;;;;25.40;65.18;97974.72;6195103;22;45752;-85
2023/10/19 13:01:18;;;;;;;;;1.00;0.00;;;;;25.17;65.63;97971.34;6196445;22;45753;-85
2023/10/19 13:03:51;;;;;;;;;1.00;1.00;;;;;25.35;64.96;97969.72;6195350;22;45266;-85
2023/10/19 13:06:17;;;;;;;;;1.00;1.00;;;;;25.19;65.52;97966.63;6220288;22;45498;-85
2023/10/19 13:08:46;;;;;;;;;2.75;1.00;;;;;25.16;65.52;97958.75;6222620;22;45328;-85
2023/10/19 13:11:14;;;;;;;;;1.00;1.00;;;;;25.28;65.68;97941.34;6196814;22;44663;-85
2023/10/19 13:13:43;;;;;;;;;1.00;1.00;;;;;25.35;65.50;97942.50;6225110;22;44851;-86
2023/10/19 13:16:09;;;;;;;;;3.75;1.50;;;;;25.27;65.41;97923.31;6196027;22;46835;-86
2023/10/19 13:18:36;;;;;;;;;1.75;1.00;;;;;25.30;64.38;97933.03;6223205;22;45335;-85
2023/10/19 13:21:05;;;;;;;;;3.00;3.00;;;;;25.21;65.25;97934.75;6195326;22;45291;-84
2023/10/19 13:23:38;;;;;;;;;1.00;0.75;;;;;25.11;61.21;97891.19;6222752;22;45031;-85
2023/10/19 13:26:17;;;;;;;;;2.00;2.00;;;;;25.00;62.72;97923.06;6198633;22;46762;-83
2023/10/19 13:28:46;;;;;;;;;3.00;1.50;;;;;24.97;63.87;97904.31;6195729;22;45598;-84
2023/10/19 13:31:14;;;;;;;;;1.00;1.00;;;;;25.07;64.34;97910.63;6222105;22;45666;-84
2023/10/19 13:33:41;;;;;;;;;2.50;2.50;;;;;24.95;64.84;97886.28;6224943;22;45376;-86
2023/10/19 13:36:07;;;;;;;;;1.75;1.50;;;;;25.07;64.37;97911.50;6196747;22;47262;-85
2023/10/19 13:38:49;;;;;;;;;1.00;1.00;;;;;25.26;63.25;97907.13;6197373;22;46094;-83
2023/10/19 13:41:16;;;;;;;;;1.25;1.25;;;;;25.12;64.33;97908.34;6195241;22;45488;-85
2023/10/19 13:43:52;;;;;;;;;2.50;2.00;;;;;25.37;63.54;97907.00;6194286;22;45676;-83
2023/10/19 13:46:23;;;;;;;;;3.50;3.50;;;;;25.24;63.32;97900.97;6196231;22;45241;-85
2023/10/19 13:48:49;;;;;;;;;2.50;2.50;;;;;25.14;64.41;97863.69;6195483;22;45539;-85
2023/10/19 13:51:19;;;;;;;;;2.00;2.00;;;;;25.37;63.28;97863.47;6224144;22;45372;-84
2023/10/19 13:53:45;;;;;;;;;2.00;2.00;;;;;25.34;63.01;97870.03;6197716;22;44823;-85
2023/10/19 13:56:11;;;;;;;;;3.75;2.25;;;;;25.34;63.74;97864.59;6193718;22;47308;-83
2023/10/19 13:59:53;;;;;;;;;3.00;2.00;;;;;25.80;63.48;97869.47;6197019;22;45376;-86
2023/10/19 14:02:26;;;;;;;;;2.00;2.00;;;;;25.81;62.10;97861.13;6223290;22;45348;-84
2023/10/19 14:04:53;;;;;;;;;2.00;2.00;;;;;25.49;61.37;97851.44;6223805;22;45581;-85
2023/10/19 14:07:18;;;;;;;;;3.00;3.00;;;;;25.54;62.97;97870.91;6196249;22;47337;-85
2023/10/19 14:09:47;;;;;;;;;1.25;1.25;;;;;25.85;61.89;97870.72;6197540;22;45385;-84
2023/10/19 14:12:14;;;;;;;;;2.00;2.00;;;;;25.78;63.02;97866.88;6226852;22;45665;-84
2023/10/19 14:14:45;;;;;;;;;2.50;2.50;;;;;25.70;62.18;97859.44;6195189;22;45474;-84
2023/10/19 14:17:11;;;;;;;;;2.75;2.75;;;;;25.76;61.92;97860.72;6219523;22;47586;-83
2023/10/19 14:19:36;;;;;;;;;1.25;1.25;;;;;25.83;61.95;97855.56;6192172;22;45410;-84
2023/10/19 14:22:02;;;;;;;;;3.00;1.25;;;;;25.78;61.83;97852.41;6196004;22;45309;-84
2023/10/19 14:24:29;;;;;;;;;1.75;1.00;;;;;25.90;62.15;97846.69;6199924;22;45321;-84
2023/10/19 14:55:24;;;;;;;;;2.00;2.00;;;;;24.99;62.33;97750.06;6169556;22;46714;-85
2023/10/19 14:57:55;;;;;;;;;2.00;2.00;;;;;24.92;63.02;97758.75;6180795;22;47490;-86
2023/10/19 15:00:34;;;;;;;;;3.00;3.00;;;;;25.04;63.00;97774.94;6197822;22;44961;-86
2023/10/19 15:03:13;;;;;;;;;3.00;3.00;;;;;25.03;63.38;97773.25;6199524;22;45274;-84
2023/10/19 15:09:55;;;;;;;;;;;;;;;;;;;;;
2023/10/19 15:12:34;;;;;;;;;2.25;2.25;;;;;25.20;62.54;97764.34;6129449;23;72413;-85
2023/10/19 15:15:11;;;;;;;;;2.25;2.25;;;;;25.20;63.16;97767.06;6106275;23;45421;-86
2023/10/19 15:17:47;;;;;;;;;3.75;3.75;;;;;25.14;63.34;97752.19;6130064;23;44781;-85
2023/10/19 15:20:15;;;;;;;;;5.00;5.00;;;;;25.25;63.48;97783.88;6129930;23;45357;-85
2023/10/19 15:22:44;;;;;;;;;5.50;4.00;;;;;25.23;62.56;97757.78;6127804;23;45518;-87
2023/10/19 15:25:31;;;;;;;;;5.25;4.25;;;;;25.00;63.33;97739.00;6128449;23;45430;-85
2023/10/19 15:28:01;;;;;;;;;4.50;4.50;;;;;24.99;62.22;97744.63;6128749;23;45415;-86
2023/10/19 15:30:31;;;;;;;;;3.50;3.25;;;;;25.07;62.57;97736.59;6101326;23;47298;-86
2023/10/19 15:32:58;;;;;;;;;4.50;3.75;;;;;24.87;62.78;97750.19;6100013;23;45688;-86
2023/10/19 15:35:23;;;;;;;;;2.00;2.00;;;;;24.70;63.25;97729.13;6126517;23;45384;-85
2023/10/19 15:37:54;;;;;;;;;3.00;3.00;;;;;24.95;62.33;97744.91;6101889;23;45435;-84
2023/10/19 15:40:23;;;;;;;;;4.00;4.00;;;;;24.57;62.25;97723.13;6103399;23;45924;-86
2023/10/19 15:42:58;;;;;;;;;4.00;2.25;;;;;24.47;63.45;97696.75;6127565;23;44859;-85
2023/10/19 15:45:34;;;;;;;;;4.00;3.00;;;;;24.44;63.05;97704.31;6103015;23;45480;-84
2023/10/19 15:48:01;;;;;;;;;3.00;2.00;;;;;24.33;62.38;97702.59;6143780;23;45430;-85
2023/10/19 15:50:30;;;;;;;;;5.50;3.75;;;;;24.21;63.06;97709.16;6190056;23;45437;-85
2023/10/19 15:53:05;;;;;;;;;;;;;;;;;;;;;
2023/10/19 15:55:44;;;;;;;;;1.50;1.50;;;;;24.30;62.55;97705.59;6178182;22;69299;-84
2023/10/19 15:58:11;;;;;;;;;2.00;2.00;;;;;24.26;63.13;97720.44;6220674;22;45443;-84
2023/10/19 16:00:40;;;;;;;;;3.50;2.00;;;;;24.06;63.19;97704.09;6199866;22;47202;-82
2023/10/19 16:03:05;;;;;;;;;1.00;1.00;;;;;23.99;62.56;97702.06;6219166;22;45249;-83
2023/10/19 16:05:31;;;;;;;;;2.50;2.50;;;;;23.88;63.16;97711.19;6222402;22;45722;-84
2023/10/19 16:11:41;;;;;;;;;3.75;3.75;;;;;23.69;63.95;97663.94;6190680;22;45661;-86
2023/10/19 16:14:07;;;;;;;;;4.25;2.75;;;;;23.58;63.06;97683.03;6224212;22;45298;-86
2023/10/19 16:16:34;;;;;;;;;1.25;1.25;;;;;23.61;63.77;97692.75;6220850;22;45633;-85